sensor_id;sensor_type;location;lat;lon;timestamp;temperature;humidity
71837;DHT22;59686;51.716;7.016;2024-01-15T00:01:07;4.70;97.40
71837;DHT22;59686;51.716;7.016;2024-01-15T00:03:33;4.80;97.50
71837;DHT22;59686;51.716;7.016;2024-01-15T00:05:59;4.70;97.50
71837;DHT22;59686;51.716;7.016;2024-01-15T00:08:30;4.70;97.50
71837;DHT22;59686;51.716;7.016;2024-01-15T00:10:55;4.70;97.50
71837;DHT22;59686;51.716;7.016;2024-01-15T00:13:21;4.70;97.50
71837;DHT22;59686;51.716;7.016;2024-01-15T00:15:46;4.70;97.50
71837;DHT22;59686;51.716;7.016;2024-01-15T00:18:12;4.80;97.50
71837;DHT22;59686;51.716;7.016;2024-01-15T00:20:45;4.70;97.50
71837;DHT22;59686;51.716;7.016;2024-01-15T00:23:11;4.70;97.80
71837;DHT22;59686;51.716;7.016;2024-01-15T00:25:36;4.70;97.50
71837;DHT22;59686;51.716;7.016;2024-01-15T00:28:02;4.80;97.50
71837;DHT22;59686;51.716;7.016;2024-01-15T00:30:28;4.70;97.50
71837;DHT22;59686;51.716;7.016;2024-01-15T00:32:54;4.80;97.50
71837;DHT22;59686;51.716;7.016;2024-01-15T00:35:19;4.80;97.50
71837;DHT22;59686;51.716;7.016;2024-01-15T00:37:49;4.80;97.60
71837;DHT22;59686;51.716;7.016;2024-01-15T00:40:15;4.70;97.50
71837;DHT22;59686;51.716;7.016;2024-01-15T00:42:40;4.70;97.60
71837;DHT22;59686;51.716;7.016;2024-01-15T00:45:06;4.70;97.60
71837;DHT22;59686;51.716;7.016;2024-01-15T00:47:33;4.70;97.70
71837;DHT22;59686;51.716;7.016;2024-01-15T00:50:00;4.70;97.70
71837;DHT22;59686;51.716;7.016;2024-01-15T00:52:34;4.70;97.80
71837;DHT22;59686;51.716;7.016;2024-01-15T00:54:59;4.70;97.80
71837;DHT22;59686;51.716;7.016;2024-01-15T00:57:25;4.70;97.70
71837;DHT22;59686;51.716;7.016;2024-01-15T00:59:51;4.70;97.70
71837;DHT22;59686;51.716;7.016;2024-01-15T01:02:16;4.70;97.70
71837;DHT22;59686;51.716;7.016;2024-01-15T01:04:42;4.70;97.60
71837;DHT22;59686;51.716;7.016;2024-01-15T01:07:08;4.80;97.70
71837;DHT22;59686;51.716;7.016;2024-01-15T01:09:34;4.80;97.60
71837;DHT22;59686;51.716;7.016;2024-01-15T01:11:59;4.80;97.60
71837;DHT22;59686;51.716;7.016;2024-01-15T01:14:25;4.80;98.00
71837;DHT22;59686;51.716;7.016;2024-01-15T01:16:55;4.70;97.60
71837;DHT22;59686;51.716;7.016;2024-01-15T01:19:20;4.80;97.60
71837;DHT22;59686;51.716;7.016;2024-01-15T01:21:46;4.70;97.60
71837;DHT22;59686;51.716;7.016;2024-01-15T01:24:11;4.80;97.60
71837;DHT22;59686;51.716;7.016;2024-01-15T01:26:37;4.80;97.60
71837;DHT22;59686;51.716;7.016;2024-01-15T01:29:03;4.80;97.60
71837;DHT22;59686;51.716;7.016;2024-01-15T01:31:42;4.70;97.50
71837;DHT22;59686;51.716;7.016;2024-01-15T01:34:08;4.80;97.60
71837;DHT22;59686;51.716;7.016;2024-01-15T01:36:34;4.70;97.60
71837;DHT22;59686;51.716;7.016;2024-01-15T01:38:59;4.70;97.60
71837;DHT22;59686;51.716;7.016;2024-01-15T01:41:25;4.80;97.60
71837;DHT22;59686;51.716;7.016;2024-01-15T01:43:51;4.80;97.50
71837;DHT22;59686;51.716;7.016;2024-01-15T01:46:16;4.70;97.50
71837;DHT22;59686;51.716;7.016;2024-01-15T01:48:43;4.80;97.60
71837;DHT22;59686;51.716;7.016;2024-01-15T01:51:09;4.70;97.50
71837;DHT22;59686;51.716;7.016;2024-01-15T01:53:38;4.70;97.50
71837;DHT22;59686;51.716;7.016;2024-01-15T01:56:04;4.70;97.50
71837;DHT22;59686;51.716;7.016;2024-01-15T01:58:31;4.70;97.50
71837;DHT22;59686;51.716;7.016;2024-01-15T02:00:59;4.70;97.50
71837;DHT22;59686;51.716;7.016;2024-01-15T02:03:27;4.70;97.50
71837;DHT22;59686;51.716;7.016;2024-01-15T02:05:53;4.80;97.50
71837;DHT22;59686;51.716;7.016;2024-01-15T02:08:36;4.80;97.50
71837;DHT22;59686;51.716;7.016;2024-01-15T02:11:02;4.80;97.50
71837;DHT22;59686;51.716;7.016;2024-01-15T02:13:27;4.70;97.40
71837;DHT22;59686;51.716;7.016;2024-01-15T02:15:53;4.70;97.50
71837;DHT22;59686;51.716;7.016;2024-01-15T02:18:19;4.70;97.50
71837;DHT22;59686;51.716;7.016;2024-01-15T02:20:45;4.70;97.50
71837;DHT22;59686;51.716;7.016;2024-01-15T02:23:15;4.70;97.50
71837;DHT22;59686;51.716;7.016;2024-01-15T02:25:42;4.60;97.60
71837;DHT22;59686;51.716;7.016;2024-01-15T02:28:12;4.70;97.60
71837;DHT22;59686;51.716;7.016;2024-01-15T02:30:39;4.70;97.60
71837;DHT22;59686;51.716;7.016;2024-01-15T02:33:09;4.70;97.50
71837;DHT22;59686;51.716;7.016;2024-01-15T02:35:35;4.70;97.60
71837;DHT22;59686;51.716;7.016;2024-01-15T02:38:05;4.70;97.60
71837;DHT22;59686;51.716;7.016;2024-01-15T02:40:31;4.70;97.50
71837;DHT22;59686;51.716;7.016;2024-01-15T02:42:57;4.70;97.50
71837;DHT22;59686;51.716;7.016;2024-01-15T02:45:23;4.70;97.50
71837;DHT22;59686;51.716;7.016;2024-01-15T02:47:49;4.70;97.50
71837;DHT22;59686;51.716;7.016;2024-01-15T02:50:14;4.70;97.50
71837;DHT22;59686;51.716;7.016;2024-01-15T02:52:41;4.70;97.50
71837;DHT22;59686;51.716;7.016;2024-01-15T02:55:07;4.70;97.40
71837;DHT22;59686;51.716;7.016;2024-01-15T02:57:33;4.70;97.40
71837;DHT22;59686;51.716;7.016;2024-01-15T02:59:59;4.70;97.40
71837;DHT22;59686;51.716;7.016;2024-01-15T03:02:24;4.60;97.40
71837;DHT22;59686;51.716;7.016;2024-01-15T03:04:50;4.70;97.50
71837;DHT22;59686;51.716;7.016;2024-01-15T03:07:16;4.70;97.50
71837;DHT22;59686;51.716;7.016;2024-01-15T03:09:43;4.70;97.40
71837;DHT22;59686;51.716;7.016;2024-01-15T03:12:08;4.60;97.40
71837;DHT22;59686;51.716;7.016;2024-01-15T03:14:35;4.70;97.40
71837;DHT22;59686;51.716;7.016;2024-01-15T03:17:01;4.70;97.40
71837;DHT22;59686;51.716;7.016;2024-01-15T03:19:27;4.70;97.40
71837;DHT22;59686;51.716;7.016;2024-01-15T03:21:52;4.60;97.40
71837;DHT22;59686;51.716;7.016;2024-01-15T03:24:20;4.70;97.30
71837;DHT22;59686;51.716;7.016;2024-01-15T03:26:46;4.70;97.40
71837;DHT22;59686;51.716;7.016;2024-01-15T03:29:11;4.70;97.30
71837;DHT22;59686;51.716;7.016;2024-01-15T03:31:37;4.70;97.30
71837;DHT22;59686;51.716;7.016;2024-01-15T03:34:03;4.70;97.30
71837;DHT22;59686;51.716;7.016;2024-01-15T03:36:29;4.70;97.30
71837;DHT22;59686;51.716;7.016;2024-01-15T03:38:55;4.70;97.30
71837;DHT22;59686;51.716;7.016;2024-01-15T03:41:25;4.70;97.40
71837;DHT22;59686;51.716;7.016;2024-01-15T03:43:51;4.70;97.40
71837;DHT22;59686;51.716;7.016;2024-01-15T03:46:17;4.80;97.70
71837;DHT22;59686;51.716;7.016;2024-01-15T03:48:42;4.70;97.40
71837;DHT22;59686;51.716;7.016;2024-01-15T03:51:08;4.70;97.30
71837;DHT22;59686;51.716;7.016;2024-01-15T03:53:33;4.70;97.30
71837;DHT22;59686;51.716;7.016;2024-01-15T03:55:59;4.80;97.30
71837;DHT22;59686;51.716;7.016;2024-01-15T03:58:25;4.70;97.30
71837;DHT22;59686;51.716;7.016;2024-01-15T04:00:50;4.70;97.30
71837;DHT22;59686;51.716;7.016;2024-01-15T04:03:16;4.70;97.30
71837;DHT22;59686;51.716;7.016;2024-01-15T04:05:42;4.80;97.30
71837;DHT22;59686;51.716;7.016;2024-01-15T04:08:08;4.70;97.30
71837;DHT22;59686;51.716;7.016;2024-01-15T04:10:33;4.70;97.30
71837;DHT22;59686;51.716;7.016;2024-01-15T04:12:59;4.70;97.30
71837;DHT22;59686;51.716;7.016;2024-01-15T04:15:27;4.70;97.30
71837;DHT22;59686;51.716;7.016;2024-01-15T04:17:52;4.70;97.30
71837;DHT22;59686;51.716;7.016;2024-01-15T04:20:18;4.70;97.30
71837;DHT22;59686;51.716;7.016;2024-01-15T04:22:44;4.80;97.30
71837;DHT22;59686;51.716;7.016;2024-01-15T04:25:10;4.70;97.20
71837;DHT22;59686;51.716;7.016;2024-01-15T04:27:35;4.70;97.20
71837;DHT22;59686;51.716;7.016;2024-01-15T04:30:01;4.70;97.20
71837;DHT22;59686;51.716;7.016;2024-01-15T04:32:27;4.70;97.20
71837;DHT22;59686;51.716;7.016;2024-01-15T04:34:52;4.70;97.20
71837;DHT22;59686;51.716;7.016;2024-01-15T04:37:18;4.70;97.20
71837;DHT22;59686;51.716;7.016;2024-01-15T04:39:44;4.70;97.20
71837;DHT22;59686;51.716;7.016;2024-01-15T04:42:09;4.70;97.20
71837;DHT22;59686;51.716;7.016;2024-01-15T04:44:35;4.70;97.10
71837;DHT22;59686;51.716;7.016;2024-01-15T04:47:01;4.70;97.10
71837;DHT22;59686;51.716;7.016;2024-01-15T04:49:27;4.70;97.10
71837;DHT22;59686;51.716;7.016;2024-01-15T04:51:55;4.70;97.10
71837;DHT22;59686;51.716;7.016;2024-01-15T04:54:20;4.60;97.10
71837;DHT22;59686;51.716;7.016;2024-01-15T04:56:46;4.70;97.10
71837;DHT22;59686;51.716;7.016;2024-01-15T04:59:13;4.70;97.10
71837;DHT22;59686;51.716;7.016;2024-01-15T05:01:39;4.70;97.10
71837;DHT22;59686;51.716;7.016;2024-01-15T05:04:05;4.70;97.10
71837;DHT22;59686;51.716;7.016;2024-01-15T05:06:31;4.70;97.10
71837;DHT22;59686;51.716;7.016;2024-01-15T05:08:57;4.70;97.10
71837;DHT22;59686;51.716;7.016;2024-01-15T05:11:23;4.70;97.20
71837;DHT22;59686;51.716;7.016;2024-01-15T05:13:48;4.70;97.10
71837;DHT22;59686;51.716;7.016;2024-01-15T05:16:14;4.70;97.20
71837;DHT22;59686;51.716;7.016;2024-01-15T05:18:40;4.60;97.20
71837;DHT22;59686;51.716;7.016;2024-01-15T05:21:05;4.60;97.20
71837;DHT22;59686;51.716;7.016;2024-01-15T05:23:31;4.70;97.20
71837;DHT22;59686;51.716;7.016;2024-01-15T05:25:57;4.70;97.20
71837;DHT22;59686;51.716;7.016;2024-01-15T05:28:23;4.70;97.20
71837;DHT22;59686;51.716;7.016;2024-01-15T05:30:49;4.70;97.20
71837;DHT22;59686;51.716;7.016;2024-01-15T05:33:16;4.70;97.20
71837;DHT22;59686;51.716;7.016;2024-01-15T05:35:42;4.70;97.20
71837;DHT22;59686;51.716;7.016;2024-01-15T05:38:07;4.70;97.20
71837;DHT22;59686;51.716;7.016;2024-01-15T05:40:33;4.70;97.20
71837;DHT22;59686;51.716;7.016;2024-01-15T05:43:03;4.70;97.20
71837;DHT22;59686;51.716;7.016;2024-01-15T05:45:30;4.70;97.20
71837;DHT22;59686;51.716;7.016;2024-01-15T05:47:56;4.70;97.20
71837;DHT22;59686;51.716;7.016;2024-01-15T05:50:22;4.70;97.30
71837;DHT22;59686;51.716;7.016;2024-01-15T05:52:48;4.70;97.20
71837;DHT22;59686;51.716;7.016;2024-01-15T05:55:15;4.70;97.20
71837;DHT22;59686;51.716;7.016;2024-01-15T05:57:41;4.70;97.20
71837;DHT22;59686;51.716;7.016;2024-01-15T06:00:07;4.70;97.20
71837;DHT22;59686;51.716;7.016;2024-01-15T06:02:34;4.70;97.20
71837;DHT22;59686;51.716;7.016;2024-01-15T06:04:59;4.70;97.20
71837;DHT22;59686;51.716;7.016;2024-01-15T06:07:27;4.70;97.20
71837;DHT22;59686;51.716;7.016;2024-01-15T06:09:52;4.70;97.20
71837;DHT22;59686;51.716;7.016;2024-01-15T06:12:18;4.70;97.30
71837;DHT22;59686;51.716;7.016;2024-01-15T06:14:44;4.60;97.20
71837;DHT22;59686;51.716;7.016;2024-01-15T06:17:09;4.60;97.20
71837;DHT22;59686;51.716;7.016;2024-01-15T06:19:36;4.70;97.30
71837;DHT22;59686;51.716;7.016;2024-01-15T06:22:02;4.60;97.20
71837;DHT22;59686;51.716;7.016;2024-01-15T06:24:27;4.70;97.20
71837;DHT22;59686;51.716;7.016;2024-01-15T06:26:53;4.60;97.30
71837;DHT22;59686;51.716;7.016;2024-01-15T06:29:19;4.70;97.20
71837;DHT22;59686;51.716;7.016;2024-01-15T06:31:44;4.70;97.30
71837;DHT22;59686;51.716;7.016;2024-01-15T06:34:10;4.70;97.20
71837;DHT22;59686;51.716;7.016;2024-01-15T06:36:36;4.70;97.20
71837;DHT22;59686;51.716;7.016;2024-01-15T06:39:02;4.70;97.20
71837;DHT22;59686;51.716;7.016;2024-01-15T06:41:28;4.70;97.20
71837;DHT22;59686;51.716;7.016;2024-01-15T06:43:53;4.70;97.20
71837;DHT22;59686;51.716;7.016;2024-01-15T06:46:20;4.70;97.20
71837;DHT22;59686;51.716;7.016;2024-01-15T06:48:46;4.70;97.30
71837;DHT22;59686;51.716;7.016;2024-01-15T06:51:12;4.70;97.20
71837;DHT22;59686;51.716;7.016;2024-01-15T06:53:40;4.70;97.20
71837;DHT22;59686;51.716;7.016;2024-01-15T06:56:06;4.60;97.20
71837;DHT22;59686;51.716;7.016;2024-01-15T06:58:31;4.60;97.30
71837;DHT22;59686;51.716;7.016;2024-01-15T07:00:57;4.60;97.30
71837;DHT22;59686;51.716;7.016;2024-01-15T07:03:23;4.60;97.30
71837;DHT22;59686;51.716;7.016;2024-01-15T07:05:49;4.60;97.30
71837;DHT22;59686;51.716;7.016;2024-01-15T07:08:14;4.60;97.30
71837;DHT22;59686;51.716;7.016;2024-01-15T07:10:40;4.60;97.20
71837;DHT22;59686;51.716;7.016;2024-01-15T07:13:06;4.80;97.30
71837;DHT22;59686;51.716;7.016;2024-01-15T07:15:32;4.60;97.30
71837;DHT22;59686;51.716;7.016;2024-01-15T07:17:57;4.60;97.50
71837;DHT22;59686;51.716;7.016;2024-01-15T07:20:24;4.70;97.30
71837;DHT22;59686;51.716;7.016;2024-01-15T07:22:50;4.70;97.30
71837;DHT22;59686;51.716;7.016;2024-01-15T07:25:16;4.70;97.20
71837;DHT22;59686;51.716;7.016;2024-01-15T07:27:41;4.70;97.30
71837;DHT22;59686;51.716;7.016;2024-01-15T07:30:13;4.70;97.30
71837;DHT22;59686;51.716;7.016;2024-01-15T07:32:39;4.70;97.30
71837;DHT22;59686;51.716;7.016;2024-01-15T07:35:04;4.70;97.30
71837;DHT22;59686;51.716;7.016;2024-01-15T07:37:49;4.70;97.30
71837;DHT22;59686;51.716;7.016;2024-01-15T07:40:15;4.70;97.30
71837;DHT22;59686;51.716;7.016;2024-01-15T07:42:41;4.70;97.30
71837;DHT22;59686;51.716;7.016;2024-01-15T07:45:09;4.70;97.30
71837;DHT22;59686;51.716;7.016;2024-01-15T07:47:34;4.70;97.30
71837;DHT22;59686;51.716;7.016;2024-01-15T07:50:00;4.80;97.30
71837;DHT22;59686;51.716;7.016;2024-01-15T07:52:26;4.70;97.30
71837;DHT22;59686;51.716;7.016;2024-01-15T07:54:51;4.70;97.30
71837;DHT22;59686;51.716;7.016;2024-01-15T07:57:17;4.70;97.40
71837;DHT22;59686;51.716;7.016;2024-01-15T07:59:43;4.70;97.40
71837;DHT22;59686;51.716;7.016;2024-01-15T08:02:09;4.70;97.40
71837;DHT22;59686;51.716;7.016;2024-01-15T08:04:37;4.70;97.40
71837;DHT22;59686;51.716;7.016;2024-01-15T08:07:03;4.70;97.40
71837;DHT22;59686;51.716;7.016;2024-01-15T08:09:28;4.60;97.30
71837;DHT22;59686;51.716;7.016;2024-01-15T08:11:55;4.70;97.40
71837;DHT22;59686;51.716;7.016;2024-01-15T08:14:20;4.70;97.40
71837;DHT22;59686;51.716;7.016;2024-01-15T08:16:46;4.80;97.40
71837;DHT22;59686;51.716;7.016;2024-01-15T08:19:12;4.70;97.40
71837;DHT22;59686;51.716;7.016;2024-01-15T08:21:37;4.70;97.40
71837;DHT22;59686;51.716;7.016;2024-01-15T08:24:03;4.70;97.40
71837;DHT22;59686;51.716;7.016;2024-01-15T08:26:30;4.70;97.40
71837;DHT22;59686;51.716;7.016;2024-01-15T08:28:56;4.70;97.40
71837;DHT22;59686;51.716;7.016;2024-01-15T08:31:21;4.70;97.40
71837;DHT22;59686;51.716;7.016;2024-01-15T08:33:47;4.70;97.40
71837;DHT22;59686;51.716;7.016;2024-01-15T08:36:13;4.70;97.40
71837;DHT22;59686;51.716;7.016;2024-01-15T08:38:39;4.70;97.40
71837;DHT22;59686;51.716;7.016;2024-01-15T08:41:05;4.70;97.40
71837;DHT22;59686;51.716;7.016;2024-01-15T08:43:36;4.70;97.50
71837;DHT22;59686;51.716;7.016;2024-01-15T08:46:02;4.70;97.40
71837;DHT22;59686;51.716;7.016;2024-01-15T08:48:28;4.70;97.50
71837;DHT22;59686;51.716;7.016;2024-01-15T08:50:54;4.70;97.50
71837;DHT22;59686;51.716;7.016;2024-01-15T08:53:20;4.70;97.50
71837;DHT22;59686;51.716;7.016;2024-01-15T08:55:46;4.80;97.50
71837;DHT22;59686;51.716;7.016;2024-01-15T08:58:11;4.70;97.50
71837;DHT22;59686;51.716;7.016;2024-01-15T09:00:45;4.60;97.50
71837;DHT22;59686;51.716;7.016;2024-01-15T09:03:11;4.70;97.50
71837;DHT22;59686;51.716;7.016;2024-01-15T09:05:37;4.80;97.50
71837;DHT22;59686;51.716;7.016;2024-01-15T09:08:03;4.70;97.50
71837;DHT22;59686;51.716;7.016;2024-01-15T09:10:29;4.70;97.40
71837;DHT22;59686;51.716;7.016;2024-01-15T09:12:54;4.70;97.50
71837;DHT22;59686;51.716;7.016;2024-01-15T09:15:22;4.70;97.40
71837;DHT22;59686;51.716;7.016;2024-01-15T09:17:48;4.70;97.40
71837;DHT22;59686;51.716;7.016;2024-01-15T09:20:15;4.70;97.40
71837;DHT22;59686;51.716;7.016;2024-01-15T09:22:40;4.70;97.40
71837;DHT22;59686;51.716;7.016;2024-01-15T09:25:11;4.60;97.40
71837;DHT22;59686;51.716;7.016;2024-01-15T09:27:37;4.70;97.40
71837;DHT22;59686;51.716;7.016;2024-01-15T09:30:04;4.70;97.40
71837;DHT22;59686;51.716;7.016;2024-01-15T09:32:30;4.70;97.40
71837;DHT22;59686;51.716;7.016;2024-01-15T09:34:56;4.70;97.40
71837;DHT22;59686;51.716;7.016;2024-01-15T09:37:21;4.70;97.40
71837;DHT22;59686;51.716;7.016;2024-01-15T09:39:49;4.70;97.40
71837;DHT22;59686;51.716;7.016;2024-01-15T09:42:15;4.70;97.40
71837;DHT22;59686;51.716;7.016;2024-01-15T09:44:48;4.70;97.40
71837;DHT22;59686;51.716;7.016;2024-01-15T09:47:14;4.70;97.30
71837;DHT22;59686;51.716;7.016;2024-01-15T09:49:41;4.70;97.40
71837;DHT22;59686;51.716;7.016;2024-01-15T09:52:07;4.70;97.40
71837;DHT22;59686;51.716;7.016;2024-01-15T09:54:33;4.70;97.40
71837;DHT22;59686;51.716;7.016;2024-01-15T09:57:00;4.70;97.40
71837;DHT22;59686;51.716;7.016;2024-01-15T09:59:27;4.70;97.40
71837;DHT22;59686;51.716;7.016;2024-01-15T10:01:53;4.70;97.40
71837;DHT22;59686;51.716;7.016;2024-01-15T10:04:21;4.70;97.30
71837;DHT22;59686;51.716;7.016;2024-01-15T10:06:47;4.70;97.40
71837;DHT22;59686;51.716;7.016;2024-01-15T10:09:16;4.70;97.40
71837;DHT22;59686;51.716;7.016;2024-01-15T10:11:43;4.70;97.40
71837;DHT22;59686;51.716;7.016;2024-01-15T10:14:10;4.60;97.30
71837;DHT22;59686;51.716;7.016;2024-01-15T10:16:39;4.60;97.40
71837;DHT22;59686;51.716;7.016;2024-01-15T10:19:08;4.60;97.40
71837;DHT22;59686;51.716;7.016;2024-01-15T10:21:34;4.60;97.30
71837;DHT22;59686;51.716;7.016;2024-01-15T10:24:03;4.70;97.60
71837;DHT22;59686;51.716;7.016;2024-01-15T10:26:30;4.70;97.30
71837;DHT22;59686;51.716;7.016;2024-01-15T10:28:57;4.70;97.30
71837;DHT22;59686;51.716;7.016;2024-01-15T10:31:23;4.70;97.30
71837;DHT22;59686;51.716;7.016;2024-01-15T10:33:50;4.70;97.30
71837;DHT22;59686;51.716;7.016;2024-01-15T10:36:17;4.70;97.30
71837;DHT22;59686;51.716;7.016;2024-01-15T10:38:44;4.70;97.30
71837;DHT22;59686;51.716;7.016;2024-01-15T10:41:10;4.70;97.40
71837;DHT22;59686;51.716;7.016;2024-01-15T10:43:36;4.70;97.50
71837;DHT22;59686;51.716;7.016;2024-01-15T10:46:02;4.70;97.40
71837;DHT22;59686;51.716;7.016;2024-01-15T10:48:28;4.70;97.40
71837;DHT22;59686;51.716;7.016;2024-01-15T10:50:58;4.70;97.40
71837;DHT22;59686;51.716;7.016;2024-01-15T10:53:24;4.80;97.40
71837;DHT22;59686;51.716;7.016;2024-01-15T10:55:57;4.70;97.70
71837;DHT22;59686;51.716;7.016;2024-01-15T10:58:23;4.70;97.40
71837;DHT22;59686;51.716;7.016;2024-01-15T11:00:49;4.70;97.50
71837;DHT22;59686;51.716;7.016;2024-01-15T11:03:16;4.70;97.50
71837;DHT22;59686;51.716;7.016;2024-01-15T11:05:44;4.70;97.50
71837;DHT22;59686;51.716;7.016;2024-01-15T11:08:10;4.70;97.40
71837;DHT22;59686;51.716;7.016;2024-01-15T11:10:50;4.60;97.40
71837;DHT22;59686;51.716;7.016;2024-01-15T11:18:23;4.70;97.20
71837;DHT22;59686;51.716;7.016;2024-01-15T11:23:57;4.70;97.20
71837;DHT22;59686;51.716;7.016;2024-01-15T11:28:56;4.70;97.20
71837;DHT22;59686;51.716;7.016;2024-01-15T11:34:11;4.70;97.10
71837;DHT22;59686;51.716;7.016;2024-01-15T11:41:59;4.70;97.20
71837;DHT22;59686;51.716;7.016;2024-01-15T11:44:29;4.70;97.20
71837;DHT22;59686;51.716;7.016;2024-01-15T11:47:12;4.70;97.20
71837;DHT22;59686;51.716;7.016;2024-01-15T11:50:03;4.70;97.10
71837;DHT22;59686;51.716;7.016;2024-01-15T11:52:33;4.70;97.10
71837;DHT22;59686;51.716;7.016;2024-01-15T11:57:53;4.80;97.10
71837;DHT22;59686;51.716;7.016;2024-01-15T12:00:21;4.70;97.10
71837;DHT22;59686;51.716;7.016;2024-01-15T12:02:48;4.70;97.10
71837;DHT22;59686;51.716;7.016;2024-01-15T12:05:16;4.70;97.20
71837;DHT22;59686;51.716;7.016;2024-01-15T12:07:43;4.80;97.10
71837;DHT22;59686;51.716;7.016;2024-01-15T12:10:27;4.70;97.10
71837;DHT22;59686;51.716;7.016;2024-01-15T12:13:04;4.70;97.20
71837;DHT22;59686;51.716;7.016;2024-01-15T12:15:31;4.70;97.20
71837;DHT22;59686;51.716;7.016;2024-01-15T12:17:59;4.70;97.20
71837;DHT22;59686;51.716;7.016;2024-01-15T12:20:25;4.70;97.20
71837;DHT22;59686;51.716;7.016;2024-01-15T12:22:51;4.70;97.20
71837;DHT22;59686;51.716;7.016;2024-01-15T12:25:17;4.70;97.20
71837;DHT22;59686;51.716;7.016;2024-01-15T12:27:43;4.70;97.20
71837;DHT22;59686;51.716;7.016;2024-01-15T12:30:15;4.70;97.20
71837;DHT22;59686;51.716;7.016;2024-01-15T12:32:41;4.70;97.20
71837;DHT22;59686;51.716;7.016;2024-01-15T12:35:08;4.70;97.10
71837;DHT22;59686;51.716;7.016;2024-01-15T12:37:39;4.70;97.10
71837;DHT22;59686;51.716;7.016;2024-01-15T12:40:05;4.70;97.00
71837;DHT22;59686;51.716;7.016;2024-01-15T12:42:50;4.70;97.00
71837;DHT22;59686;51.716;7.016;2024-01-15T12:45:16;4.80;97.10
71837;DHT22;59686;51.716;7.016;2024-01-15T12:47:43;4.80;97.00
71837;DHT22;59686;51.716;7.016;2024-01-15T12:50:09;4.80;96.90
71837;DHT22;59686;51.716;7.016;2024-01-15T12:52:36;4.70;97.00
71837;DHT22;59686;51.716;7.016;2024-01-15T12:55:04;4.70;97.00
71837;DHT22;59686;51.716;7.016;2024-01-15T12:57:30;4.70;96.90
71837;DHT22;59686;51.716;7.016;2024-01-15T12:59:56;4.70;96.80
71837;DHT22;59686;51.716;7.016;2024-01-15T13:02:22;4.70;96.80
71837;DHT22;59686;51.716;7.016;2024-01-15T13:04:48;4.70;96.90
71837;DHT22;59686;51.716;7.016;2024-01-15T13:07:13;4.70;97.00
71837;DHT22;59686;51.716;7.016;2024-01-15T13:09:39;4.80;97.00
71837;DHT22;59686;51.716;7.016;2024-01-15T13:12:05;4.70;96.80
71837;DHT22;59686;51.716;7.016;2024-01-15T13:14:31;4.70;96.80
71837;DHT22;59686;51.716;7.016;2024-01-15T13:16:58;4.70;96.80
71837;DHT22;59686;51.716;7.016;2024-01-15T13:19:38;4.70;96.80
71837;DHT22;59686;51.716;7.016;2024-01-15T13:22:04;4.70;96.80
71837;DHT22;59686;51.716;7.016;2024-01-15T13:24:32;4.70;96.90
71837;DHT22;59686;51.716;7.016;2024-01-15T13:26:58;4.70;96.90
71837;DHT22;59686;51.716;7.016;2024-01-15T13:29:23;4.70;97.00
71837;DHT22;59686;51.716;7.016;2024-01-15T13:31:49;4.70;97.00
71837;DHT22;59686;51.716;7.016;2024-01-15T13:34:15;4.80;97.00
71837;DHT22;59686;51.716;7.016;2024-01-15T13:36:40;4.70;97.00
71837;DHT22;59686;51.716;7.016;2024-01-15T13:39:06;4.70;97.00
71837;DHT22;59686;51.716;7.016;2024-01-15T13:41:35;4.80;97.00
71837;DHT22;59686;51.716;7.016;2024-01-15T13:44:01;4.80;97.00
71837;DHT22;59686;51.716;7.016;2024-01-15T13:46:28;4.80;97.00
71837;DHT22;59686;51.716;7.016;2024-01-15T13:48:55;4.80;97.00
71837;DHT22;59686;51.716;7.016;2024-01-15T13:51:24;4.90;97.10
71837;DHT22;59686;51.716;7.016;2024-01-15T13:53:50;5.00;97.10
71837;DHT22;59686;51.716;7.016;2024-01-15T13:56:16;4.90;97.10
71837;DHT22;59686;51.716;7.016;2024-01-15T13:58:42;4.80;97.10
71837;DHT22;59686;51.716;7.016;2024-01-15T14:01:08;4.90;97.20
71837;DHT22;59686;51.716;7.016;2024-01-15T14:03:34;4.80;97.20
71837;DHT22;59686;51.716;7.016;2024-01-15T14:06:00;4.80;97.20
71837;DHT22;59686;51.716;7.016;2024-01-15T14:08:28;4.80;97.20
71837;DHT22;59686;51.716;7.016;2024-01-15T14:10:54;4.90;97.20
71837;DHT22;59686;51.716;7.016;2024-01-15T14:13:21;4.90;97.20
71837;DHT22;59686;51.716;7.016;2024-01-15T14:15:47;4.80;97.20
71837;DHT22;59686;51.716;7.016;2024-01-15T14:18:16;4.90;97.20
71837;DHT22;59686;51.716;7.016;2024-01-15T14:20:42;4.80;97.20
71837;DHT22;59686;51.716;7.016;2024-01-15T14:23:09;4.80;97.10
71837;DHT22;59686;51.716;7.016;2024-01-15T14:25:34;4.80;97.00
71837;DHT22;59686;51.716;7.016;2024-01-15T14:28:00;4.80;97.00
71837;DHT22;59686;51.716;7.016;2024-01-15T14:30:25;4.80;97.00
71837;DHT22;59686;51.716;7.016;2024-01-15T14:32:51;4.80;97.00
71837;DHT22;59686;51.716;7.016;2024-01-15T14:35:17;4.80;97.00
71837;DHT22;59686;51.716;7.016;2024-01-15T14:37:42;4.80;97.10
71837;DHT22;59686;51.716;7.016;2024-01-15T14:40:08;4.70;97.10
71837;DHT22;59686;51.716;7.016;2024-01-15T14:42:35;4.80;97.00
71837;DHT22;59686;51.716;7.016;2024-01-15T14:45:02;4.70;97.10
71837;DHT22;59686;51.716;7.016;2024-01-15T14:47:28;4.70;97.00
71837;DHT22;59686;51.716;7.016;2024-01-15T14:49:54;4.80;97.00
71837;DHT22;59686;51.716;7.016;2024-01-15T14:52:22;4.70;97.00
71837;DHT22;59686;51.716;7.016;2024-01-15T14:54:47;4.80;97.00
71837;DHT22;59686;51.716;7.016;2024-01-15T14:57:13;4.70;97.00
71837;DHT22;59686;51.716;7.016;2024-01-15T14:59:39;4.80;96.90
71837;DHT22;59686;51.716;7.016;2024-01-15T15:02:07;4.80;96.90
71837;DHT22;59686;51.716;7.016;2024-01-15T15:04:32;4.80;96.80
71837;DHT22;59686;51.716;7.016;2024-01-15T15:06:58;4.80;96.80
71837;DHT22;59686;51.716;7.016;2024-01-15T15:09:24;4.90;96.80
71837;DHT22;59686;51.716;7.016;2024-01-15T15:11:50;4.80;96.70
71837;DHT22;59686;51.716;7.016;2024-01-15T15:14:17;4.80;96.70
71837;DHT22;59686;51.716;7.016;2024-01-15T15:16:43;4.80;96.80
71837;DHT22;59686;51.716;7.016;2024-01-15T15:19:12;4.70;96.70
71837;DHT22;59686;51.716;7.016;2024-01-15T15:21:38;4.70;96.70
71837;DHT22;59686;51.716;7.016;2024-01-15T15:24:04;4.70;96.70
71837;DHT22;59686;51.716;7.016;2024-01-15T15:26:30;4.70;96.70
71837;DHT22;59686;51.716;7.016;2024-01-15T15:28:55;4.70;96.70
71837;DHT22;59686;51.716;7.016;2024-01-15T15:31:22;4.70;96.70
71837;DHT22;59686;51.716;7.016;2024-01-15T15:33:48;4.70;96.60
71837;DHT22;59686;51.716;7.016;2024-01-15T15:36:13;4.70;96.60
71837;DHT22;59686;51.716;7.016;2024-01-15T15:38:39;4.70;96.40
71837;DHT22;59686;51.716;7.016;2024-01-15T15:41:05;4.80;96.50
71837;DHT22;59686;51.716;7.016;2024-01-15T15:43:30;4.80;96.40
71837;DHT22;59686;51.716;7.016;2024-01-15T15:45:57;4.80;96.30
71837;DHT22;59686;51.716;7.016;2024-01-15T15:48:25;4.80;96.40
71837;DHT22;59686;51.716;7.016;2024-01-15T15:50:51;4.80;96.30
71837;DHT22;59686;51.716;7.016;2024-01-15T15:53:18;4.70;96.20
71837;DHT22;59686;51.716;7.016;2024-01-15T15:55:45;4.70;96.20
71837;DHT22;59686;51.716;7.016;2024-01-15T15:58:11;4.80;96.20
71837;DHT22;59686;51.716;7.016;2024-01-15T16:00:37;4.80;96.20
71837;DHT22;59686;51.716;7.016;2024-01-15T16:03:03;4.70;96.20